Time;durP1;ratioP1;P1;durP2;ratioP2;P2;SDS_P1;SDS_P2;PMS_P1;PMS_P2;Temp;Humidity;BMP_temperature;BMP_pressure;BME280_temperature;BME280_humidity;BME280_pressure;Samples;Min_cycle;Max_cycle;Signal;HPM_P1;HPM_P2
2020/12/18 00:01:20;;;;;;;10.00;9.10;;;11.30;94.50;;;;;;5068120;28;20797;-52
2020/12/18 00:03:47;;;;;;;9.57;8.60;;;11.20;94.40;;;;;;5071237;28;21024;-53
2020/12/18 00:06:15;;;;;;;11.73;10.73;;;11.20;94.50;;;;;;5050490;28;20614;-52
2020/12/18 00:08:42;;;;;;;11.07;10.00;;;11.20;94.40;;;;;;5051162;28;21157;-53
2020/12/18 00:11:09;;;;;;;15.17;11.30;;;11.10;94.10;;;;;;5052706;28;20629;-52
2020/12/18 00:13:36;;;;;;;14.10;12.50;;;11.10;94.10;;;;;;5070463;28;20653;-53
2020/12/18 00:16:03;;;;;;;12.40;11.13;;;11.10;94.10;;;;;;5070745;28;20653;-53
2020/12/18 00:18:30;;;;;;;13.20;11.80;;;11.00;94.10;;;;;;5070510;28;20969;-53
2020/12/18 00:20:57;;;;;;;18.53;12.23;;;10.90;94.10;;;;;;5070561;28;20637;-53
2020/12/18 00:23:23;;;;;;;14.43;12.83;;;10.90;94.20;;;;;;5069861;28;20689;-54
2020/12/18 00:25:52;;;;;;;15.17;13.87;;;10.80;94.10;;;;;;5069884;28;20671;-53
2020/12/18 00:28:19;;;;;;;13.27;11.80;;;10.80;94.20;;;;;;5070367;28;21156;-53
2020/12/18 00:30:46;;;;;;;13.37;12.10;;;10.80;94.20;;;;;;5069678;28;20667;-53
2020/12/18 00:33:15;;;;;;;15.03;13.47;;;10.80;94.30;;;;;;5061517;28;20630;-53
2020/12/18 00:35:41;;;;;;;14.87;12.07;;;10.70;94.30;;;;;;5068537;28;20692;-54
2020/12/18 00:38:08;;;;;;;15.17;13.63;;;10.70;94.30;;;;;;5056796;28;20692;-53
2020/12/18 00:40:35;;;;;;;14.73;13.37;;;10.70;94.30;;;;;;5051579;28;20641;-53
2020/12/18 00:43:03;;;;;;;13.77;12.40;;;10.70;94.30;;;;;;5050164;28;20625;-51
2020/12/18 00:45:29;;;;;;;14.33;13.00;;;10.70;94.30;;;;;;5050262;28;20648;-53
2020/12/18 00:47:56;;;;;;;14.77;13.27;;;10.60;94.20;;;;;;5049950;28;20683;-52
2020/12/18 00:50:23;;;;;;;14.60;13.10;;;10.60;94.30;;;;;;5049639;28;20630;-53
2020/12/18 00:52:50;;;;;;;15.13;13.60;;;10.60;94.30;;;;;;5048687;28;20637;-53
2020/12/18 00:55:16;;;;;;;14.83;12.73;;;10.60;94.40;;;;;;5069263;28;20673;-52
2020/12/18 00:57:43;;;;;;;13.70;12.30;;;10.60;94.40;;;;;;5070404;28;20633;-53
2020/12/18 01:00:11;;;;;;;12.50;11.40;;;10.60;94.60;;;;;;5069667;28;20682;-53
2020/12/18 01:02:37;;;;;;;15.03;13.47;;;10.60;94.60;;;;;;5069587;28;20747;-53
2020/12/18 01:05:04;;;;;;;16.63;12.10;;;10.60;94.70;;;;;;5060881;28;20716;-53
2020/12/18 01:07:31;;;;;;;14.53;12.40;;;10.50;94.70;;;;;;5049816;28;20638;-52
2020/12/18 01:09:58;;;;;;;14.00;12.73;;;10.50;94.70;;;;;;5049883;28;21146;-54
2020/12/18 01:12:24;;;;;;;15.43;13.93;;;10.50;94.60;;;;;;5049861;28;20673;-54
2020/12/18 01:14:51;;;;;;;13.53;12.23;;;10.50;94.60;;;;;;5050638;28;20661;-52
2020/12/18 01:17:19;;;;;;;14.60;13.20;;;10.50;94.50;;;;;;5050030;28;20727;-53
2020/12/18 01:19:45;;;;;;;13.00;11.40;;;10.50;94.60;;;;;;5049691;28;20633;-52
2020/12/18 01:22:12;;;;;;;15.50;13.60;;;10.50;94.60;;;;;;5049458;28;21161;-52
2020/12/18 01:24:39;;;;;;;13.60;12.33;;;10.50;94.50;;;;;;5049888;28;20657;-51
2020/12/18 01:27:06;;;;;;;13.20;11.23;;;10.50;94.40;;;;;;5049694;28;20622;-53
2020/12/18 01:29:32;;;;;;;14.73;13.20;;;10.50;94.30;;;;;;5067971;28;20663;-53
2020/12/18 01:31:59;;;;;;;16.27;13.47;;;10.50;94.20;;;;;;5069183;28;20690;-51
2020/12/18 01:34:27;;;;;;;14.30;12.90;;;10.40;94.20;;;;;;5069025;28;21040;-53
2020/12/18 01:36:54;;;;;;;14.73;13.23;;;10.40;94.30;;;;;;5067917;28;20645;-50
2020/12/18 01:39:20;;;;;;;14.47;13.00;;;10.40;94.40;;;;;;5068831;28;20731;-49
2020/12/18 01:41:47;;;;;;;12.70;11.47;;;10.40;94.40;;;;;;5049191;28;20618;-48
2020/12/18 01:44:14;;;;;;;13.30;11.80;;;10.40;94.30;;;;;;5049110;28;20688;-49
2020/12/18 01:46:41;;;;;;;16.53;13.70;;;10.30;94.30;;;;;;5049534;28;20659;-51
2020/12/18 01:49:07;;;;;;;13.77;12.57;;;10.30;94.30;;;;;;5049639;28;20691;-50
2020/12/18 01:51:35;;;;;;;15.47;13.97;;;10.30;94.40;;;;;;5057668;28;20678;-48
2020/12/18 01:54:02;;;;;;;15.27;13.80;;;10.30;94.40;;;;;;5068957;28;20714;-50
2020/12/18 01:56:28;;;;;;;16.13;14.53;;;10.20;94.40;;;;;;5072008;28;20786;-49
2020/12/18 01:58:55;;;;;;;19.07;16.20;;;10.30;94.60;;;;;;5073256;28;20625;-49
2020/12/18 02:01:22;;;;;;;14.97;13.47;;;10.30;94.60;;;;;;5073337;28;20629;-50
2020/12/18 02:03:48;;;;;;;15.23;12.90;;;10.30;94.60;;;;;;5072247;28;20738;-49
2020/12/18 02:06:16;;;;;;;18.63;14.27;;;10.20;94.60;;;;;;5065448;28;20621;-48
2020/12/18 02:08:44;;;;;;;15.87;14.20;;;10.20;94.60;;;;;;5064620;28;20758;-49
2020/12/18 02:11:12;;;;;;;17.33;13.77;;;10.30;94.70;;;;;;5073506;28;20677;-49
2020/12/18 02:13:39;;;;;;;14.43;13.00;;;10.20;94.70;;;;;;5073385;28;21238;-49
2020/12/18 02:16:05;;;;;;;15.37;13.77;;;10.20;94.70;;;;;;5073192;28;20738;-50
2020/12/18 02:18:32;;;;;;;16.07;14.53;;;10.20;94.60;;;;;;5072808;28;20702;-49
2020/12/18 02:21:02;;;;;;;15.03;13.53;;;10.20;94.90;;;;;;5065245;28;20629;-49
2020/12/18 02:23:29;;;;;;;17.20;14.27;;;10.20;94.60;;;;;;5052239;28;20653;-49
2020/12/18 02:26:06;;;;;;;17.37;13.83;;;10.10;94.70;;;;;;5052906;28;20684;-48
2020/12/18 02:28:35;;;;;;;15.10;13.50;;;10.10;94.80;;;;;;5062288;28;20625;-49
2020/12/18 02:31:02;;;;;;;15.97;13.30;;;10.10;94.80;;;;;;5060278;28;20629;-48
2020/12/18 02:33:30;;;;;;;18.20;14.07;;;10.10;94.90;;;;;;5051992;28;20666;-49
2020/12/18 02:35:57;;;;;;;15.37;13.90;;;10.10;95.00;;;;;;5052358;28;20686;-50
2020/12/18 02:38:24;;;;;;;15.33;13.73;;;10.10;95.00;;;;;;5052655;28;20634;-49
2020/12/18 02:40:51;;;;;;;19.97;12.40;;;10.10;94.90;;;;;;5063955;28;20690;-50
2020/12/18 02:43:19;;;;;;;16.17;13.73;;;10.10;95.00;;;;;;5072037;28;20701;-49
2020/12/18 02:45:45;;;;;;;20.43;15.50;;;10.10;94.90;;;;;;5072592;28;20621;-49
2020/12/18 02:48:12;;;;;;;16.00;14.40;;;10.00;94.90;;;;;;5070775;28;20661;-49
2020/12/18 02:50:39;;;;;;;20.33;14.33;;;10.00;94.90;;;;;;5071929;28;20620;-50
2020/12/18 02:53:11;;;;;;;15.27;13.37;;;10.00;94.90;;;;;;5071863;28;20632;-49
2020/12/18 02:55:38;;;;;;;15.93;14.23;;;9.90;95.60;;;;;;5072235;28;20678;-50
2020/12/18 02:58:05;;;;;;;17.00;12.77;;;9.90;95.70;;;;;;5070303;28;20661;-50
2020/12/18 03:00:33;;;;;;;14.43;12.97;;;10.00;95.20;;;;;;5055080;28;20630;-50
2020/12/18 03:03:00;;;;;;;15.23;12.77;;;10.00;95.20;;;;;;5051812;28;20672;-50
2020/12/18 03:05:27;;;;;;;14.37;13.10;;;10.00;95.20;;;;;;5066580;28;20632;-51
2020/12/18 03:07:54;;;;;;;14.23;12.73;;;10.00;95.10;;;;;;5070345;28;20667;-49
2020/12/18 03:10:21;;;;;;;14.50;13.00;;;10.00;95.00;;;;;;5055025;28;20638;-49
2020/12/18 03:12:48;;;;;;;14.87;13.03;;;10.00;95.00;;;;;;5052284;28;20630;-50
2020/12/18 03:15:14;;;;;;;14.27;12.90;;;9.90;95.60;;;;;;5051682;28;20661;-49
2020/12/18 03:17:42;;;;;;;14.07;12.63;;;9.90;95.60;;;;;;5051257;28;20677;-48
2020/12/18 03:20:09;;;;;;;15.83;14.33;;;9.90;95.60;;;;;;5068804;28;20628;-50
2020/12/18 03:22:36;;;;;;;15.23;12.30;;;9.90;95.60;;;;;;5071543;28;20682;-50
2020/12/18 03:25:03;;;;;;;13.53;12.13;;;9.90;95.60;;;;;;5071176;28;20656;-50
2020/12/18 03:27:30;;;;;;;13.17;11.80;;;9.90;95.60;;;;;;5069449;28;20625;-50
2020/12/18 03:29:57;;;;;;;15.20;13.73;;;9.90;95.50;;;;;;5071360;28;20637;-49
2020/12/18 03:32:24;;;;;;;15.23;13.77;;;9.90;95.50;;;;;;5053267;28;21223;-50
2020/12/18 03:34:51;;;;;;;14.87;13.37;;;9.90;95.40;;;;;;5054842;28;20657;-50
2020/12/18 03:37:18;;;;;;;19.33;13.23;;;9.90;95.40;;;;;;5070486;28;20681;-50
2020/12/18 03:39:45;;;;;;;16.67;14.47;;;9.90;95.40;;;;;;5070530;28;20633;-50
2020/12/18 03:42:12;;;;;;;15.30;13.80;;;9.80;95.40;;;;;;5070650;28;20625;-49
2020/12/18 03:44:38;;;;;;;15.37;13.67;;;9.90;95.40;;;;;;5070316;28;20657;-52
2020/12/18 03:47:05;;;;;;;23.20;13.93;;;9.90;95.40;;;;;;5070562;28;20625;-50
2020/12/18 03:49:32;;;;;;;14.80;13.40;;;9.90;95.30;;;;;;5070117;28;20727;-50
2020/12/18 03:51:59;;;;;;;12.77;11.67;;;9.80;95.20;;;;;;5071161;28;20663;-52
2020/12/18 03:54:26;;;;;;;14.27;12.97;;;9.80;95.20;;;;;;5070722;28;20820;-52
2020/12/18 03:56:53;;;;;;;14.13;12.23;;;9.70;95.40;;;;;;5070733;28;20723;-49
2020/12/18 03:59:19;;;;;;;14.93;13.43;;;9.70;95.10;;;;;;5070573;28;20762;-52
2020/12/18 04:01:46;;;;;;;14.53;13.00;;;9.70;95.10;;;;;;5058978;28;20680;-52
2020/12/18 04:04:13;;;;;;;13.30;12.00;;;9.70;95.00;;;;;;5069666;28;20676;-51
2020/12/18 04:06:40;;;;;;;17.50;14.03;;;9.70;95.00;;;;;;5054039;28;20666;-52
2020/12/18 04:09:07;;;;;;;15.57;14.10;;;9.60;94.90;;;;;;5051604;28;20927;-53
2020/12/18 04:11:34;;;;;;;15.63;14.03;;;9.60;94.80;;;;;;5055002;28;20625;-53
2020/12/18 04:14:01;;;;;;;18.80;15.13;;;9.60;94.80;;;;;;5054391;28;20699;-52
2020/12/18 04:16:27;;;;;;;17.70;15.80;;;9.60;94.90;;;;;;5052482;28;21070;-52
2020/12/18 04:18:54;;;;;;;21.80;16.40;;;9.60;95.10;;;;;;5050009;28;20618;-53
2020/12/18 04:21:21;;;;;;;22.80;17.00;;;9.60;95.20;;;;;;5049706;28;21154;-53
2020/12/18 04:23:48;;;;;;;31.30;18.60;;;9.60;95.20;;;;;;5050037;28;20658;-51
2020/12/18 04:26:15;;;;;;;78.53;22.63;;;9.60;95.30;;;;;;5049749;28;21165;-51
2020/12/18 04:28:42;;;;;;;38.73;19.53;;;9.70;95.30;;;;;;5055854;28;20625;-51
2020/12/18 04:31:09;;;;;;;25.77;17.50;;;9.60;95.30;;;;;;5065524;28;20670;-52
2020/12/18 04:33:36;;;;;;;38.47;18.90;;;9.60;95.30;;;;;;5067460;28;20649;-51
2020/12/18 04:36:03;;;;;;;113.20;25.63;;;9.60;95.30;;;;;;5055649;28;21027;-52
2020/12/18 04:38:30;;;;;;;119.17;24.40;;;9.60;95.30;;;;;;5050514;28;20666;-50
2020/12/18 04:40:56;;;;;;;193.07;30.60;;;9.60;95.30;;;;;;5056962;28;20696;-52
2020/12/18 04:43:24;;;;;;;45.40;19.50;;;9.50;95.30;;;;;;5049986;28;20689;-52
2020/12/18 04:45:51;;;;;;;132.40;25.47;;;9.50;95.30;;;;;;5049803;28;21138;-51
2020/12/18 04:48:18;;;;;;;134.87;26.40;;;9.50;95.40;;;;;;5049614;28;20680;-53
2020/12/18 04:50:45;;;;;;;79.27;20.60;;;9.40;95.40;;;;;;5064034;28;20996;-51
2020/12/18 04:53:12;;;;;;;108.67;21.83;;;9.50;95.50;;;;;;5067894;28;20678;-51
2020/12/18 04:55:39;;;;;;;82.10;19.93;;;9.40;95.40;;;;;;5069717;28;20624;-53
2020/12/18 04:58:06;;;;;;;44.90;20.50;;;9.40;95.40;;;;;;5069195;28;21208;-52
2020/12/18 05:00:34;;;;;;;29.30;17.13;;;9.40;95.40;;;;;;5069991;28;20634;-52
2020/12/18 05:03:01;;;;;;;36.77;17.70;;;9.40;95.40;;;;;;5069228;28;20621;-52
2020/12/18 05:05:28;;;;;;;19.63;14.43;;;9.40;95.50;;;;;;5065363;28;21210;-53
2020/12/18 05:07:54;;;;;;;28.87;17.50;;;9.40;95.50;;;;;;5062657;28;20626;-47
2020/12/18 05:10:22;;;;;;;33.80;18.10;;;9.40;95.50;;;;;;5068997;28;20629;-50
2020/12/18 05:12:48;;;;;;;37.57;15.93;;;9.40;95.50;;;;;;5070006;28;21153;-50
2020/12/18 05:15:15;;;;;;;24.83;16.30;;;9.30;95.40;;;;;;5069856;28;20749;-53
2020/12/18 05:17:43;;;;;;;26.53;15.67;;;9.30;95.30;;;;;;5067807;28;21245;-52
2020/12/18 05:20:10;;;;;;;39.60;16.90;;;9.30;95.10;;;;;;5067897;28;21190;-51
2020/12/18 05:22:37;;;;;;;45.87;17.03;;;9.30;94.90;;;;;;5049615;28;20634;-50
2020/12/18 05:25:04;;;;;;;43.50;16.93;;;9.30;94.90;;;;;;5048632;28;20723;-50
2020/12/18 05:27:41;;;;;;;47.80;14.33;;;9.30;94.90;;;;;;5049591;28;20612;-51
2020/12/18 05:30:08;;;;;;;68.50;17.80;;;9.30;95.00;;;;;;5063190;28;20633;-52
2020/12/18 05:32:35;;;;;;;58.50;17.63;;;9.30;95.10;;;;;;5070239;28;20702;-53
2020/12/18 05:35:03;;;;;;;48.50;18.80;;;9.30;95.10;;;;;;5073202;28;20660;-50
2020/12/18 05:37:36;;;;;;;35.07;16.60;;;9.20;95.00;;;;;;5065962;28;20649;-52
2020/12/18 05:40:04;;;;;;;45.60;16.90;;;9.20;94.90;;;;;;5073265;28;20698;-52
2020/12/18 05:42:39;;;;;;;63.43;20.07;;;9.30;94.90;;;;;;5084976;28;20628;-52
2020/12/18 05:45:11;;;;;;;53.20;17.63;;;9.20;94.80;;;;;;5093389;28;21333;-51
2020/12/18 05:47:53;;;;;;;42.87;15.67;;;9.20;94.80;;;;;;5070817;28;20993;-52
2020/12/18 05:50:21;;;;;;;72.50;18.53;;;9.20;94.80;;;;;;5071539;28;20694;-52
2020/12/18 05:52:56;;;;;;;50.50;16.10;;;9.10;94.80;;;;;;5072913;28;20627;-50
2020/12/18 05:55:22;;;;;;;88.33;17.50;;;9.10;94.70;;;;;;5072278;28;20723;-52
2020/12/18 05:57:49;;;;;;;127.70;27.80;;;9.10;94.80;;;;;;5072727;28;20683;-51
2020/12/18 06:00:16;;;;;;;139.50;21.20;;;9.10;95.10;;;;;;5068966;28;20641;-50
2020/12/18 06:02:43;;;;;;;182.67;21.30;;;9.10;94.80;;;;;;5052881;28;20690;-50
2020/12/18 06:05:10;;;;;;;102.57;18.70;;;9.00;95.00;;;;;;5052904;28;20748;-50
2020/12/18 06:07:38;;;;;;;48.70;15.17;;;9.10;94.70;;;;;;5052901;28;20667;-49
2020/12/18 06:10:05;;;;;;;65.83;17.40;;;9.00;94.60;;;;;;5053528;28;20690;-53
2020/12/18 06:12:31;;;;;;;86.30;18.00;;;9.10;94.80;;;;;;5051289;28;20694;-52
2020/12/18 06:14:58;;;;;;;78.73;16.53;;;9.10;94.80;;;;;;5052691;28;20661;-51
2020/12/18 06:17:27;;;;;;;91.10;18.40;;;9.00;94.70;;;;;;5061686;28;20652;-53
2020/12/18 06:19:56;;;;;;;77.30;16.43;;;9.00;94.60;;;;;;5072271;28;20727;-52
2020/12/18 06:22:23;;;;;;;76.73;17.03;;;9.10;94.60;;;;;;5070713;28;20628;-52
2020/12/18 06:24:51;;;;;;;86.97;17.47;;;9.00;94.50;;;;;;5072880;28;21164;-49
2020/12/18 06:27:19;;;;;;;117.10;22.63;;;9.00;94.60;;;;;;5072637;28;20697;-50
2020/12/18 06:29:46;;;;;;;127.73;21.80;;;9.00;94.60;;;;;;5071046;28;20625;-50
2020/12/18 06:32:23;;;;;;;59.37;16.37;;;9.00;94.60;;;;;;5072568;28;20958;-50
2020/12/18 06:34:50;;;;;;;64.13;16.00;;;8.90;94.70;;;;;;5072411;28;20659;-50
2020/12/18 06:37:27;;;;;;;45.00;14.00;;;8.90;94.40;;;;;;5072160;28;21068;-52
2020/12/18 06:39:54;;;;;;;62.00;16.10;;;8.90;94.30;;;;;;5072833;28;20624;-50
2020/12/18 06:42:22;;;;;;;79.87;18.27;;;8.90;94.20;;;;;;5072369;28;20639;-53
2020/12/18 06:44:50;;;;;;;83.37;20.30;;;8.90;94.00;;;;;;5072116;28;20674;-51
2020/12/18 06:47:19;;;;;;;35.30;15.77;;;8.90;93.90;;;;;;5072019;28;20682;-53
2020/12/18 06:49:59;;;;;;;54.23;19.47;;;8.90;94.00;;;;;;5072194;28;21145;-53
2020/12/18 06:52:58;;;;;;;46.50;15.83;;;8.80;94.20;;;;;;5071757;28;20677;-53
2020/12/18 06:55:37;;;;;;;51.80;15.83;;;8.80;94.30;;;;;;4989774;28;20639;-50
2020/12/18 06:58:14;;;;;;;20.07;14.27;;;8.80;94.30;;;;;;4989903;28;20774;-50
2020/12/18 07:00:53;;;;;;;25.73;14.53;;;8.80;94.50;;;;;;5038119;28;20624;-49
2020/12/18 07:03:41;;;;;;;26.33;16.13;;;8.80;94.70;;;;;;5072278;28;20659;-49
2020/12/18 07:06:12;;;;;;;31.67;15.63;;;8.80;94.70;;;;;;5071079;28;20798;-49
2020/12/18 07:08:40;;;;;;;17.13;13.80;;;8.90;94.70;;;;;;5071389;28;20626;-50
2020/12/18 07:11:09;;;;;;;22.73;15.00;;;8.90;94.40;;;;;;5071329;28;20686;-50
2020/12/18 07:13:36;;;;;;;49.67;18.90;;;8.90;94.10;;;;;;5071476;28;20656;-50
2020/12/18 07:16:10;;;;;;;34.87;16.47;;;8.90;93.90;;;;;;5071391;28;20735;-49
2020/12/18 07:18:38;;;;;;;31.07;15.50;;;9.00;93.60;;;;;;5071829;28;20983;-50
2020/12/18 07:21:05;;;;;;;40.93;15.90;;;9.00;93.40;;;;;;5071762;28;20785;-49
2020/12/18 07:23:33;;;;;;;60.03;17.80;;;8.90;93.50;;;;;;5071238;28;20776;-49
2020/12/18 07:26:02;;;;;;;107.67;19.40;;;8.90;93.60;;;;;;5071818;28;20631;-49
2020/12/18 07:28:30;;;;;;;138.30;20.53;;;8.90;93.70;;;;;;5071327;28;20620;-49
2020/12/18 07:30:57;;;;;;;76.77;20.33;;;8.90;93.80;;;;;;5071610;28;20690;-50
2020/12/18 07:33:24;;;;;;;107.63;21.17;;;8.80;93.70;;;;;;5071324;28;20684;-50
2020/12/18 07:35:51;;;;;;;66.13;19.50;;;8.90;93.80;;;;;;5071077;28;20643;-49
2020/12/18 07:38:20;;;;;;;125.23;23.00;;;8.90;93.80;;;;;;5070593;28;21056;-50
2020/12/18 07:40:48;;;;;;;214.07;40.87;;;8.90;93.80;;;;;;5071653;28;20635;-48
2020/12/18 07:43:16;;;;;;;119.60;20.70;;;8.90;93.90;;;;;;5070925;28;20673;-50
2020/12/18 07:45:45;;;;;;;150.93;22.37;;;8.90;94.00;;;;;;5071529;28;20739;-50
2020/12/18 07:48:15;;;;;;;85.20;19.83;;;8.80;94.00;;;;;;5070887;28;20628;-49
2020/12/18 07:50:53;;;;;;;125.03;25.17;;;8.80;94.00;;;;;;5071043;28;21079;-50
2020/12/18 07:53:20;;;;;;;122.60;20.40;;;8.70;94.00;;;;;;5069783;28;20628;-52
2020/12/18 07:55:57;;;;;;;135.77;28.20;;;8.70;94.10;;;;;;5070187;28;20633;-52
2020/12/18 07:58:27;;;;;;;116.47;23.10;;;8.70;94.10;;;;;;5070507;28;20917;-49
2020/12/18 08:01:10;;;;;;;80.10;20.43;;;8.70;94.40;;;;;;5070613;28;20654;-48
2020/12/18 08:03:40;;;;;;;84.60;22.20;;;8.60;94.20;;;;;;5069202;28;21081;-51
2020/12/18 08:06:13;;;;;;;58.50;18.47;;;8.60;94.30;;;;;;5071300;28;20640;-53
2020/12/18 08:08:40;;;;;;;168.40;26.87;;;8.60;94.30;;;;;;5070396;28;20688;-52
2020/12/18 08:11:13;;;;;;;114.40;26.20;;;8.60;94.60;;;;;;5070876;28;20632;-51
2020/12/18 08:13:40;;;;;;;133.60;22.07;;;8.50;94.80;;;;;;5070172;28;21046;-52
2020/12/18 08:16:12;;;;;;;160.30;29.20;;;8.50;94.90;;;;;;5070742;28;21036;-50
2020/12/18 08:18:39;;;;;;;64.77;17.90;;;8.60;95.00;;;;;;5069955;28;20784;-51
2020/12/18 08:21:05;;;;;;;52.00;16.90;;;8.60;95.10;;;;;;5070330;28;21005;-48
2020/12/18 08:23:34;;;;;;;54.27;15.60;;;8.60;95.10;;;;;;5069434;28;20660;-49
2020/12/18 08:26:01;;;;;;;47.67;16.57;;;8.70;95.20;;;;;;5070711;28;20617;-53
2020/12/18 08:28:28;;;;;;;467.37;107.50;;;8.80;95.30;;;;;;5068572;28;21046;-51
2020/12/18 08:30:55;;;;;;;75.03;18.90;;;8.70;95.10;;;;;;5070652;28;20648;-50
2020/12/18 08:33:22;;;;;;;96.60;21.47;;;8.80;95.10;;;;;;5070057;28;20659;-52
2020/12/18 08:35:49;;;;;;;116.10;23.40;;;8.80;95.00;;;;;;5070274;28;20984;-47
2020/12/18 08:38:16;;;;;;;61.87;19.50;;;8.90;94.80;;;;;;5069622;28;20665;-49
2020/12/18 08:40:43;;;;;;;54.57;18.80;;;8.90;94.70;;;;;;5070131;28;20736;-50
2020/12/18 08:43:10;;;;;;;41.47;18.60;;;8.90;94.70;;;;;;5070283;28;20976;-49
2020/12/18 08:45:43;;;;;;;39.07;17.73;;;8.90;94.50;;;;;;5070678;28;20628;-49
2020/12/18 08:48:10;;;;;;;30.33;18.40;;;9.00;94.40;;;;;;5071074;28;20670;-48
2020/12/18 08:50:38;;;;;;;29.27;16.80;;;9.00;94.40;;;;;;5070363;28;20629;-48
2020/12/18 08:53:12;;;;;;;29.50;17.50;;;9.00;94.50;;;;;;5069809;28;20912;-52
2020/12/18 08:55:39;;;;;;;24.63;16.33;;;9.00;94.50;;;;;;5070372;28;20662;-52
2020/12/18 08:58:07;;;;;;;25.83;18.80;;;9.10;94.70;;;;;;5069988;28;20649;-52
2020/12/18 09:00:35;;;;;;;28.20;18.33;;;9.10;94.70;;;;;;5069662;28;20632;-52
2020/12/18 09:03:02;;;;;;;27.93;18.20;;;9.10;94.60;;;;;;5069771;28;20621;-53
2020/12/18 09:05:29;;;;;;;25.27;17.83;;;9.20;94.50;;;;;;5069284;28;20621;-52
2020/12/18 09:07:59;;;;;;;41.90;18.87;;;9.20;94.40;;;;;;5069911;28;20690;-52
2020/12/18 09:10:37;;;;;;;77.53;22.20;;;9.20;94.40;;;;;;5069723;28;20628;-53
2020/12/18 09:13:12;;;;;;;34.53;17.23;;;9.30;94.40;;;;;;5069798;28;20961;-50
2020/12/18 09:15:39;;;;;;;52.93;19.87;;;9.30;94.50;;;;;;5069620;28;20633;-50
2020/12/18 09:18:06;;;;;;;54.97;18.80;;;9.30;94.50;;;;;;5069668;28;20664;-53
2020/12/18 09:20:34;;;;;;;61.43;18.60;;;9.30;94.60;;;;;;5069809;28;21213;-50
2020/12/18 09:23:04;;;;;;;47.93;20.63;;;9.30;94.50;;;;;;5068038;28;20637;-52
2020/12/18 09:25:35;;;;;;;37.97;18.73;;;9.30;94.60;;;;;;5069706;28;20678;-49
2020/12/18 09:28:01;;;;;;;61.17;20.70;;;9.30;94.80;;;;;;5069492;28;20637;-49
2020/12/18 09:30:29;;;;;;;71.07;24.37;;;9.30;94.90;;;;;;5069982;28;20637;-53
2020/12/18 09:33:16;;;;;;;56.53;21.43;;;9.30;95.00;;;;;;5070156;28;21199;-51
2020/12/18 09:35:43;;;;;;;30.80;18.83;;;9.30;95.00;;;;;;5070359;28;20658;-54
2020/12/18 09:38:11;;;;;;;28.37;20.37;;;9.30;94.90;;;;;;5069838;28;20718;-52
2020/12/18 09:40:38;;;;;;;44.13;21.53;;;9.30;94.90;;;;;;5070268;28;20678;-54
2020/12/18 09:43:06;;;;;;;30.13;18.50;;;9.40;94.80;;;;;;5068893;28;21039;-52
2020/12/18 09:45:32;;;;;;;50.50;21.13;;;9.40;94.40;;;;;;5070315;28;20617;-49
2020/12/18 09:47:59;;;;;;;58.50;16.77;;;9.40;94.30;;;;;;5070646;28;20686;-51
2020/12/18 09:50:26;;;;;;;47.33;20.07;;;9.40;94.20;;;;;;5069955;28;21243;-49
2020/12/18 09:52:53;;;;;;;35.07;16.10;;;9.40;94.10;;;;;;5071121;28;21025;-50
2020/12/18 09:55:21;;;;;;;22.10;18.03;;;9.40;94.10;;;;;;5069886;28;20991;-51
2020/12/18 09:57:48;;;;;;;53.17;18.33;;;9.40;94.20;;;;;;5069356;28;20653;-51
2020/12/18 10:00:15;;;;;;;108.03;23.07;;;9.40;94.30;;;;;;5069683;28;20976;-48
2020/12/18 10:02:41;;;;;;;24.73;16.00;;;9.40;94.30;;;;;;5069855;28;20640;-50
2020/12/18 10:05:08;;;;;;;33.73;17.20;;;9.40;94.30;;;;;;5070013;28;20656;-48
2020/12/18 10:07:35;;;;;;;38.40;17.43;;;9.40;94.20;;;;;;5069338;28;20645;-48
2020/12/18 10:10:02;;;;;;;25.60;15.20;;;9.30;94.20;;;;;;5070770;28;20621;-49
2020/12/18 10:12:30;;;;;;;38.10;17.43;;;9.30;94.20;;;;;;5070956;28;20773;-48
2020/12/18 10:14:57;;;;;;;30.03;15.87;;;9.30;94.20;;;;;;5069298;28;20661;-48
2020/12/18 10:17:23;;;;;;;42.20;16.13;;;9.30;94.20;;;;;;5072042;28;20629;-49
2020/12/18 10:19:51;;;;;;;43.73;17.07;;;9.30;94.30;;;;;;5072896;28;20657;-50
2020/12/18 10:22:18;;;;;;;49.23;17.87;;;9.30;94.40;;;;;;5073320;28;20662;-51
2020/12/18 10:24:45;;;;;;;28.50;16.80;;;9.30;94.40;;;;;;5072738;28;20644;-49
2020/12/18 10:27:12;;;;;;;27.77;17.50;;;9.30;94.50;;;;;;5072853;28;20694;-50
2020/12/18 10:29:40;;;;;;;44.17;20.23;;;9.30;94.50;;;;;;5072640;28;20960;-49
2020/12/18 10:32:07;;;;;;;45.63;20.43;;;9.40;94.60;;;;;;5072979;28;21232;-50
2020/12/18 10:34:34;;;;;;;24.67;18.03;;;9.50;94.60;;;;;;5072478;28;20680;-49
2020/12/18 10:37:01;;;;;;;40.07;20.90;;;9.50;94.40;;;;;;5072657;28;20633;-50
2020/12/18 10:39:27;;;;;;;51.27;19.50;;;9.50;94.40;;;;;;5073333;28;20664;-50
2020/12/18 10:41:55;;;;;;;28.03;17.77;;;9.50;94.50;;;;;;5072648;28;21025;-50
2020/12/18 10:44:22;;;;;;;34.37;19.93;;;9.50;94.50;;;;;;5072160;28;20668;-49
2020/12/18 10:46:49;;;;;;;28.97;19.17;;;9.50;94.40;;;;;;5072558;28;20641;-49
2020/12/18 10:49:17;;;;;;;29.40;19.00;;;9.60;94.40;;;;;;5072681;28;20694;-53
2020/12/18 10:51:44;;;;;;;38.97;19.23;;;9.60;94.40;;;;;;5072576;28;20661;-52
2020/12/18 10:54:11;;;;;;;50.17;16.90;;;9.60;94.40;;;;;;5072109;28;21076;-53
2020/12/18 10:56:42;;;;;;;43.00;17.00;;;9.60;94.30;;;;;;5073170;28;20636;-54
2020/12/18 10:59:08;;;;;;;33.73;20.20;;;9.50;94.20;;;;;;5072279;28;20761;-54
2020/12/18 11:01:35;;;;;;;135.50;31.90;;;9.50;94.30;;;;;;5072343;28;21245;-52
2020/12/18 11:04:03;;;;;;;44.33;23.37;;;9.50;94.50;;;;;;5072626;28;20653;-54
2020/12/18 11:06:30;;;;;;;47.77;22.03;;;9.40;94.70;;;;;;5072532;28;20629;-53
2020/12/18 11:08:57;;;;;;;31.93;20.43;;;9.50;94.70;;;;;;5072630;28;21047;-51
2020/12/18 11:11:24;;;;;;;27.73;22.57;;;9.50;94.70;;;;;;5072687;28;20750;-50
2020/12/18 11:13:51;;;;;;;28.80;23.83;;;9.60;94.80;;;;;;5072016;28;20653;-50
2020/12/18 11:16:18;;;;;;;45.43;21.20;;;9.70;94.90;;;;;;5072512;28;20620;-48
2020/12/18 11:18:46;;;;;;;49.50;20.77;;;9.70;94.70;;;;;;5072106;28;20672;-49
2020/12/18 11:21:14;;;;;;;35.43;22.77;;;9.70;94.60;;;;;;5071761;28;20621;-53
2020/12/18 11:23:41;;;;;;;43.10;24.60;;;9.70;94.60;;;;;;5071910;28;20686;-51
2020/12/18 11:26:07;;;;;;;32.03;20.70;;;9.80;94.80;;;;;;5071832;28;20633;-50
2020/12/18 11:28:34;;;;;;;36.50;22.43;;;9.80;94.70;;;;;;5070210;28;20626;-52
2020/12/18 11:31:01;;;;;;;33.13;20.60;;;9.90;94.70;;;;;;5071797;28;20629;-49
2020/12/18 11:33:28;;;;;;;32.00;21.30;;;9.90;94.50;;;;;;5071146;28;20714;-52
2020/12/18 11:35:55;;;;;;;35.13;22.37;;;10.00;93.90;;;;;;5070036;28;20790;-49
2020/12/18 11:38:23;;;;;;;25.63;19.23;;;10.00;93.90;;;;;;5071016;28;20653;-51
2020/12/18 11:40:49;;;;;;;25.47;20.03;;;10.00;93.80;;;;;;5071285;28;20682;-53
2020/12/18 11:43:16;;;;;;;32.03;22.97;;;10.10;93.80;;;;;;5071128;28;20641;-48
2020/12/18 11:45:43;;;;;;;37.20;24.03;;;10.10;93.70;;;;;;5069996;28;20690;-53
2020/12/18 11:48:10;;;;;;;25.70;21.23;;;10.10;93.50;;;;;;5071475;28;20678;-53
2020/12/18 11:50:37;;;;;;;49.63;23.83;;;10.10;93.40;;;;;;5071345;28;20643;-53
2020/12/18 11:53:05;;;;;;;34.03;21.90;;;10.10;93.40;;;;;;5070972;28;20686;-51
2020/12/18 11:55:34;;;;;;;31.23;22.00;;;10.00;93.40;;;;;;5071224;28;20980;-54
2020/12/18 11:58:01;;;;;;;67.27;22.70;;;9.90;94.00;;;;;;5071248;28;20617;-51
2020/12/18 12:00:28;;;;;;;69.03;24.00;;;9.90;94.30;;;;;;5070958;28;20637;-49
2020/12/18 12:02:55;;;;;;;68.87;23.40;;;9.90;94.40;;;;;;5071058;28;20687;-50
2020/12/18 12:05:22;;;;;;;52.17;24.73;;;9.70;94.20;;;;;;5070842;28;20657;-53
2020/12/18 12:07:49;;;;;;;46.20;21.40;;;9.60;94.40;;;;;;5070582;28;20633;-50
2020/12/18 12:10:18;;;;;;;41.07;22.13;;;9.60;94.70;;;;;;5069769;28;21019;-50
2020/12/18 12:12:46;;;;;;;81.27;24.13;;;9.50;94.90;;;;;;5070672;28;21000;-51
2020/12/18 12:15:13;;;;;;;128.40;37.63;;;9.60;95.00;;;;;;5069833;28;21246;-51
2020/12/18 12:17:40;;;;;;;75.37;23.30;;;9.50;94.90;;;;;;5070393;28;21193;-51
2020/12/18 12:20:07;;;;;;;37.10;21.63;;;9.50;95.00;;;;;;5071201;28;20657;-50
2020/12/18 12:22:33;;;;;;;35.53;22.07;;;9.60;95.10;;;;;;5070461;28;20629;-50
2020/12/18 12:25:00;;;;;;;40.20;19.70;;;9.60;95.10;;;;;;5070927;28;20733;-52
2020/12/18 12:27:27;;;;;;;38.63;21.47;;;9.70;95.10;;;;;;5071037;28;20625;-50
2020/12/18 12:29:55;;;;;;;60.93;21.97;;;9.70;94.90;;;;;;5070268;28;20632;-53
2020/12/18 12:32:22;;;;;;;33.17;19.30;;;9.70;94.80;;;;;;5070891;28;20629;-49
2020/12/18 12:34:49;;;;;;;59.40;21.10;;;9.60;94.80;;;;;;5070273;28;20759;-50
2020/12/18 12:37:16;;;;;;;36.87;21.10;;;9.60;95.00;;;;;;5070348;28;20655;-53